Terminal Aerodrome Forecast
Issued by NWS Shreveport, LA

Home | Current Version | Previous Version | Text Only | Print | Product List | Glossary On
Versions: 1 2 3 4 5 6 7 8 9 10 11 12 13 14 15
211
FTUS44 KSHV 311730
TAFMLU
TAF
KMLU 311730Z 3118/0118 VRB04KT P6SM SCT040 SCT250
     FM010000 VRB03KT P6SM SCT050 SCT250
      TEMPO 0110/0113 5SM BR
     FM011400 18005KT P6SM BKN180 BKN250
     FM011600 18007KT P6SM SCT030 BKN180 BKN250=

USA.gov is the U.S. government's official web portal to all federal, state and local government web resources and services.